sensor_id;sensor_type;location;lat;lon;timestamp;pressure;altitude;pressure_sealevel;temperature
8227;BMP180;4154;48.810;9.012;2023-11-21T00:01:58;96443.00;;;7.90
8227;BMP180;4154;48.810;9.012;2023-11-21T00:04:24;96437.00;;;7.80
8227;BMP180;4154;48.810;9.012;2023-11-21T00:06:50;96444.00;;;7.80
8227;BMP180;4154;48.810;9.012;2023-11-21T00:09:17;96445.00;;;7.80
8227;BMP180;4154;48.810;9.012;2023-11-21T00:11:44;96436.00;;;7.80
8227;BMP180;4154;48.810;9.012;2023-11-21T00:14:11;96435.00;;;7.80
8227;BMP180;4154;48.810;9.012;2023-11-21T00:16:37;96444.00;;;7.90
8227;BMP180;4154;48.810;9.012;2023-11-21T00:19:03;96434.00;;;7.80
8227;BMP180;4154;48.810;9.012;2023-11-21T00:21:30;96438.00;;;7.90
8227;BMP180;4154;48.810;9.012;2023-11-21T00:23:56;96430.00;;;7.90
8227;BMP180;4154;48.810;9.012;2023-11-21T00:26:22;96434.00;;;7.90
8227;BMP180;4154;48.810;9.012;2023-11-21T00:28:50;96429.00;;;7.90
8227;BMP180;4154;48.810;9.012;2023-11-21T00:31:16;96437.00;;;8.00
8227;BMP180;4154;48.810;9.012;2023-11-21T00:33:42;96437.00;;;8.00
8227;BMP180;4154;48.810;9.012;2023-11-21T00:36:09;96436.00;;;8.00
8227;BMP180;4154;48.810;9.012;2023-11-21T00:38:35;96434.00;;;8.00
8227;BMP180;4154;48.810;9.012;2023-11-21T00:41:02;96427.00;;;8.00
8227;BMP180;4154;48.810;9.012;2023-11-21T00:43:28;96418.00;;;8.00
8227;BMP180;4154;48.810;9.012;2023-11-21T00:45:54;96415.00;;;8.00
8227;BMP180;4154;48.810;9.012;2023-11-21T00:48:20;96422.00;;;8.00
8227;BMP180;4154;48.810;9.012;2023-11-21T00:50:46;96428.00;;;8.00
8227;BMP180;4154;48.810;9.012;2023-11-21T00:53:13;96427.00;;;8.10
8227;BMP180;4154;48.810;9.012;2023-11-21T00:55:39;96440.00;;;8.10
8227;BMP180;4154;48.810;9.012;2023-11-21T00:58:06;96424.00;;;8.10
8227;BMP180;4154;48.810;9.012;2023-11-21T01:00:33;96436.00;;;8.10
8227;BMP180;4154;48.810;9.012;2023-11-21T01:03:00;96432.00;;;8.20
8227;BMP180;4154;48.810;9.012;2023-11-21T01:05:26;96433.00;;;8.20
8227;BMP180;4154;48.810;9.012;2023-11-21T01:07:52;96433.00;;;8.20
8227;BMP180;4154;48.810;9.012;2023-11-21T01:10:18;96432.00;;;8.20
8227;BMP180;4154;48.810;9.012;2023-11-21T01:12:44;96445.00;;;8.20
8227;BMP180;4154;48.810;9.012;2023-11-21T01:15:10;96440.00;;;8.20
8227;BMP180;4154;48.810;9.012;2023-11-21T01:17:38;96439.00;;;8.20
8227;BMP180;4154;48.810;9.012;2023-11-21T01:20:04;96441.00;;;8.20
8227;BMP180;4154;48.810;9.012;2023-11-21T01:22:38;96439.00;;;8.20
8227;BMP180;4154;48.810;9.012;2023-11-21T01:25:05;96436.00;;;8.20
8227;BMP180;4154;48.810;9.012;2023-11-21T01:27:33;96441.00;;;8.20
8227;BMP180;4154;48.810;9.012;2023-11-21T01:30:01;96430.00;;;8.20
8227;BMP180;4154;48.810;9.012;2023-11-21T01:32:26;96441.00;;;8.20
8227;BMP180;4154;48.810;9.012;2023-11-21T01:34:52;96434.00;;;8.20
8227;BMP180;4154;48.810;9.012;2023-11-21T01:37:17;96433.00;;;8.20
8227;BMP180;4154;48.810;9.012;2023-11-21T01:39:44;96424.00;;;8.20
8227;BMP180;4154;48.810;9.012;2023-11-21T01:42:10;96424.00;;;8.30
8227;BMP180;4154;48.810;9.012;2023-11-21T01:44:39;96434.00;;;8.30
8227;BMP180;4154;48.810;9.012;2023-11-21T01:47:06;96428.00;;;8.30
8227;BMP180;4154;48.810;9.012;2023-11-21T01:49:36;96425.00;;;8.30
8227;BMP180;4154;48.810;9.012;2023-11-21T01:52:03;96423.00;;;8.30
8227;BMP180;4154;48.810;9.012;2023-11-21T01:54:30;96409.00;;;8.30
8227;BMP180;4154;48.810;9.012;2023-11-21T01:57:01;96420.00;;;8.30
8227;BMP180;4154;48.810;9.012;2023-11-21T01:59:37;96422.00;;;8.30
8227;BMP180;4154;48.810;9.012;2023-11-21T02:02:05;96415.00;;;8.30
8227;BMP180;4154;48.810;9.012;2023-11-21T02:04:32;96415.00;;;8.30
8227;BMP180;4154;48.810;9.012;2023-11-21T02:06:59;96426.00;;;8.30
8227;BMP180;4154;48.810;9.012;2023-11-21T02:09:28;96425.00;;;8.30
8227;BMP180;4154;48.810;9.012;2023-11-21T02:11:55;96419.00;;;8.30
8227;BMP180;4154;48.810;9.012;2023-11-21T02:14:22;96419.00;;;8.30
8227;BMP180;4154;48.810;9.012;2023-11-21T02:16:50;96420.00;;;8.30
8227;BMP180;4154;48.810;9.012;2023-11-21T02:19:20;96413.00;;;8.30
8227;BMP180;4154;48.810;9.012;2023-11-21T02:21:50;96420.00;;;8.30
8227;BMP180;4154;48.810;9.012;2023-11-21T02:24:22;96422.00;;;8.30
8227;BMP180;4154;48.810;9.012;2023-11-21T02:26:49;96425.00;;;8.30
8227;BMP180;4154;48.810;9.012;2023-11-21T02:29:18;96424.00;;;8.30
8227;BMP180;4154;48.810;9.012;2023-11-21T02:31:48;96420.00;;;8.30
8227;BMP180;4154;48.810;9.012;2023-11-21T02:34:15;96419.00;;;8.30
8227;BMP180;4154;48.810;9.012;2023-11-21T02:36:42;96414.00;;;8.30
8227;BMP180;4154;48.810;9.012;2023-11-21T02:39:09;96411.00;;;8.30
8227;BMP180;4154;48.810;9.012;2023-11-21T02:41:37;96416.00;;;8.30
8227;BMP180;4154;48.810;9.012;2023-11-21T02:44:03;96412.00;;;8.30
8227;BMP180;4154;48.810;9.012;2023-11-21T02:46:29;96415.00;;;8.30
8227;BMP180;4154;48.810;9.012;2023-11-21T02:48:55;96415.00;;;8.30
8227;BMP180;4154;48.810;9.012;2023-11-21T02:51:22;96409.00;;;8.20
8227;BMP180;4154;48.810;9.012;2023-11-21T02:53:48;96409.00;;;8.20
8227;BMP180;4154;48.810;9.012;2023-11-21T02:56:16;96396.00;;;8.20
8227;BMP180;4154;48.810;9.012;2023-11-21T02:58:44;96406.00;;;8.20
8227;BMP180;4154;48.810;9.012;2023-11-21T03:01:10;96404.00;;;8.30
8227;BMP180;4154;48.810;9.012;2023-11-21T03:03:38;96406.00;;;8.20
8227;BMP180;4154;48.810;9.012;2023-11-21T03:06:06;96398.00;;;8.20
8227;BMP180;4154;48.810;9.012;2023-11-21T03:08:32;96403.00;;;8.20
8227;BMP180;4154;48.810;9.012;2023-11-21T03:10:58;96409.00;;;8.20
8227;BMP180;4154;48.810;9.012;2023-11-21T03:13:24;96402.00;;;8.30
8227;BMP180;4154;48.810;9.012;2023-11-21T03:15:50;96400.00;;;8.30
8227;BMP180;4154;48.810;9.012;2023-11-21T03:18:15;96404.00;;;8.20
8227;BMP180;4154;48.810;9.012;2023-11-21T03:20:43;96409.00;;;8.20
8227;BMP180;4154;48.810;9.012;2023-11-21T03:23:12;96407.00;;;8.20
8227;BMP180;4154;48.810;9.012;2023-11-21T03:25:38;96398.00;;;8.20
8227;BMP180;4154;48.810;9.012;2023-11-21T03:28:04;96403.00;;;8.20
8227;BMP180;4154;48.810;9.012;2023-11-21T03:30:30;96408.00;;;8.10
8227;BMP180;4154;48.810;9.012;2023-11-21T03:32:56;96416.00;;;8.10
8227;BMP180;4154;48.810;9.012;2023-11-21T03:35:23;96416.00;;;8.10
8227;BMP180;4154;48.810;9.012;2023-11-21T03:37:50;96411.00;;;8.10
8227;BMP180;4154;48.810;9.012;2023-11-21T03:40:15;96413.00;;;8.00
8227;BMP180;4154;48.810;9.012;2023-11-21T03:42:41;96419.00;;;8.00
8227;BMP180;4154;48.810;9.012;2023-11-21T03:45:08;96421.00;;;8.10
8227;BMP180;4154;48.810;9.012;2023-11-21T03:47:34;96413.00;;;8.10
8227;BMP180;4154;48.810;9.012;2023-11-21T03:50:00;96413.00;;;8.00
8227;BMP180;4154;48.810;9.012;2023-11-21T03:52:26;96419.00;;;8.10
8227;BMP180;4154;48.810;9.012;2023-11-21T03:54:53;96423.00;;;8.10
8227;BMP180;4154;48.810;9.012;2023-11-21T03:57:21;96434.00;;;8.00
8227;BMP180;4154;48.810;9.012;2023-11-21T03:59:47;96423.00;;;8.10
8227;BMP180;4154;48.810;9.012;2023-11-21T04:02:13;96426.00;;;8.10
8227;BMP180;4154;48.810;9.012;2023-11-21T04:04:39;96441.00;;;8.10
8227;BMP180;4154;48.810;9.012;2023-11-21T04:07:05;96427.00;;;8.10
8227;BMP180;4154;48.810;9.012;2023-11-21T04:09:31;96438.00;;;8.10
8227;BMP180;4154;48.810;9.012;2023-11-21T04:11:57;96424.00;;;8.10
8227;BMP180;4154;48.810;9.012;2023-11-21T04:14:23;96437.00;;;8.10
8227;BMP180;4154;48.810;9.012;2023-11-21T04:16:50;96423.00;;;8.00
8227;BMP180;4154;48.810;9.012;2023-11-21T04:19:15;96421.00;;;8.00
8227;BMP180;4154;48.810;9.012;2023-11-21T04:21:43;96433.00;;;8.00
8227;BMP180;4154;48.810;9.012;2023-11-21T04:24:09;96433.00;;;8.00
8227;BMP180;4154;48.810;9.012;2023-11-21T04:26:35;96436.00;;;8.00
8227;BMP180;4154;48.810;9.012;2023-11-21T04:29:01;96436.00;;;7.90
8227;BMP180;4154;48.810;9.012;2023-11-21T04:31:28;96437.00;;;7.90
8227;BMP180;4154;48.810;9.012;2023-11-21T04:33:53;96440.00;;;7.90
8227;BMP180;4154;48.810;9.012;2023-11-21T04:36:19;96431.00;;;7.90
8227;BMP180;4154;48.810;9.012;2023-11-21T04:38:46;96445.00;;;7.90
8227;BMP180;4154;48.810;9.012;2023-11-21T04:41:11;96434.00;;;7.80
8227;BMP180;4154;48.810;9.012;2023-11-21T04:43:37;96443.00;;;7.80
8227;BMP180;4154;48.810;9.012;2023-11-21T04:46:03;96440.00;;;7.80
8227;BMP180;4154;48.810;9.012;2023-11-21T04:48:29;96434.00;;;7.70
8227;BMP180;4154;48.810;9.012;2023-11-21T04:50:55;96427.00;;;7.70
8227;BMP180;4154;48.810;9.012;2023-11-21T04:53:22;96429.00;;;7.70
8227;BMP180;4154;48.810;9.012;2023-11-21T04:55:48;96425.00;;;7.70
8227;BMP180;4154;48.810;9.012;2023-11-21T04:58:14;96434.00;;;7.70
8227;BMP180;4154;48.810;9.012;2023-11-21T05:00:40;96435.00;;;7.70
8227;BMP180;4154;48.810;9.012;2023-11-21T05:03:07;96429.00;;;7.60
8227;BMP180;4154;48.810;9.012;2023-11-21T05:05:33;96441.00;;;7.70
8227;BMP180;4154;48.810;9.012;2023-11-21T05:07:59;96442.00;;;7.60
8227;BMP180;4154;48.810;9.012;2023-11-21T05:10:25;96439.00;;;7.50
8227;BMP180;4154;48.810;9.012;2023-11-21T05:12:51;96441.00;;;7.50
8227;BMP180;4154;48.810;9.012;2023-11-21T05:15:17;96447.00;;;7.50
8227;BMP180;4154;48.810;9.012;2023-11-21T05:17:44;96445.00;;;7.40
8227;BMP180;4154;48.810;9.012;2023-11-21T05:20:12;96450.00;;;7.40
8227;BMP180;4154;48.810;9.012;2023-11-21T05:22:40;96451.00;;;7.40
8227;BMP180;4154;48.810;9.012;2023-11-21T05:25:06;96458.00;;;7.40
8227;BMP180;4154;48.810;9.012;2023-11-21T05:27:37;96463.00;;;7.40
8227;BMP180;4154;48.810;9.012;2023-11-21T05:30:05;96469.00;;;7.40
8227;BMP180;4154;48.810;9.012;2023-11-21T05:32:32;96468.00;;;7.40
8227;BMP180;4154;48.810;9.012;2023-11-21T05:34:58;96471.00;;;7.40
8227;BMP180;4154;48.810;9.012;2023-11-21T05:37:24;96471.00;;;7.50
8227;BMP180;4154;48.810;9.012;2023-11-21T05:39:52;96475.00;;;7.40
8227;BMP180;4154;48.810;9.012;2023-11-21T05:42:18;96471.00;;;7.40
8227;BMP180;4154;48.810;9.012;2023-11-21T05:44:46;96477.00;;;7.40
8227;BMP180;4154;48.810;9.012;2023-11-21T05:47:12;96476.00;;;7.50
8227;BMP180;4154;48.810;9.012;2023-11-21T05:49:39;96479.00;;;7.50
8227;BMP180;4154;48.810;9.012;2023-11-21T05:52:05;96475.00;;;7.50
8227;BMP180;4154;48.810;9.012;2023-11-21T05:54:32;96487.00;;;7.50
8227;BMP180;4154;48.810;9.012;2023-11-21T05:56:58;96490.00;;;7.50
8227;BMP180;4154;48.810;9.012;2023-11-21T05:59:24;96494.00;;;7.60
8227;BMP180;4154;48.810;9.012;2023-11-21T06:01:50;96498.00;;;7.60
8227;BMP180;4154;48.810;9.012;2023-11-21T06:04:17;96503.00;;;7.60
8227;BMP180;4154;48.810;9.012;2023-11-21T06:06:44;96505.00;;;7.60
8227;BMP180;4154;48.810;9.012;2023-11-21T06:09:10;96502.00;;;7.60
8227;BMP180;4154;48.810;9.012;2023-11-21T06:11:37;96501.00;;;7.70
8227;BMP180;4154;48.810;9.012;2023-11-21T06:14:03;96499.00;;;7.70
8227;BMP180;4154;48.810;9.012;2023-11-21T06:16:29;96512.00;;;7.70
8227;BMP180;4154;48.810;9.012;2023-11-21T06:18:55;96510.00;;;7.80
8227;BMP180;4154;48.810;9.012;2023-11-21T06:21:21;96508.00;;;7.70
8227;BMP180;4154;48.810;9.012;2023-11-21T06:23:47;96510.00;;;7.80
8227;BMP180;4154;48.810;9.012;2023-11-21T06:26:13;96507.00;;;7.80
8227;BMP180;4154;48.810;9.012;2023-11-21T06:28:38;96518.00;;;7.80
8227;BMP180;4154;48.810;9.012;2023-11-21T06:31:04;96522.00;;;7.70
8227;BMP180;4154;48.810;9.012;2023-11-21T06:33:34;96516.00;;;7.70
8227;BMP180;4154;48.810;9.012;2023-11-21T06:36:00;96519.00;;;7.80
8227;BMP180;4154;48.810;9.012;2023-11-21T06:38:29;96518.00;;;7.70
8227;BMP180;4154;48.810;9.012;2023-11-21T06:40:56;96527.00;;;7.70
8227;BMP180;4154;48.810;9.012;2023-11-21T06:43:24;96528.00;;;7.70
8227;BMP180;4154;48.810;9.012;2023-11-21T06:45:50;96532.00;;;7.70
8227;BMP180;4154;48.810;9.012;2023-11-21T06:48:15;96539.00;;;7.70
8227;BMP180;4154;48.810;9.012;2023-11-21T06:50:41;96544.00;;;7.60
8227;BMP180;4154;48.810;9.012;2023-11-21T06:53:08;96545.00;;;7.70
8227;BMP180;4154;48.810;9.012;2023-11-21T06:55:35;96544.00;;;7.70
8227;BMP180;4154;48.810;9.012;2023-11-21T06:58:01;96540.00;;;7.70
8227;BMP180;4154;48.810;9.012;2023-11-21T07:00:27;96549.00;;;7.70
8227;BMP180;4154;48.810;9.012;2023-11-21T07:02:54;96545.00;;;7.60
8227;BMP180;4154;48.810;9.012;2023-11-21T07:05:21;96555.00;;;7.70
8227;BMP180;4154;48.810;9.012;2023-11-21T07:07:48;96558.00;;;7.60
8227;BMP180;4154;48.810;9.012;2023-11-21T07:10:14;96557.00;;;7.60
8227;BMP180;4154;48.810;9.012;2023-11-21T07:12:40;96562.00;;;7.60
8227;BMP180;4154;48.810;9.012;2023-11-21T07:15:07;96561.00;;;7.60
8227;BMP180;4154;48.810;9.012;2023-11-21T07:20:35;96569.00;;;7.60
8227;BMP180;4154;48.810;9.012;2023-11-21T07:23:01;96570.00;;;7.70
8227;BMP180;4154;48.810;9.012;2023-11-21T07:25:27;96575.00;;;7.70
8227;BMP180;4154;48.810;9.012;2023-11-21T07:27:53;96577.00;;;7.70
8227;BMP180;4154;48.810;9.012;2023-11-21T07:30:20;96578.00;;;7.80
8227;BMP180;4154;48.810;9.012;2023-11-21T07:32:48;96584.00;;;7.80
8227;BMP180;4154;48.810;9.012;2023-11-21T07:35:14;96581.00;;;7.80
8227;BMP180;4154;48.810;9.012;2023-11-21T07:37:41;96586.00;;;7.80
8227;BMP180;4154;48.810;9.012;2023-11-21T07:40:08;96583.00;;;7.80
8227;BMP180;4154;48.810;9.012;2023-11-21T07:42:37;96593.00;;;7.90
8227;BMP180;4154;48.810;9.012;2023-11-21T07:45:05;96597.00;;;7.90
8227;BMP180;4154;48.810;9.012;2023-11-21T07:47:32;96598.00;;;7.90
8227;BMP180;4154;48.810;9.012;2023-11-21T07:50:01;96603.00;;;8.00
8227;BMP180;4154;48.810;9.012;2023-11-21T07:52:28;96603.00;;;8.00
8227;BMP180;4154;48.810;9.012;2023-11-21T07:54:54;96601.00;;;8.10
8227;BMP180;4154;48.810;9.012;2023-11-21T07:57:20;96607.00;;;8.10
8227;BMP180;4154;48.810;9.012;2023-11-21T07:59:45;96610.00;;;8.10
8227;BMP180;4154;48.810;9.012;2023-11-21T08:02:11;96606.00;;;8.20
8227;BMP180;4154;48.810;9.012;2023-11-21T08:05:10;96619.00;;;8.20
8227;BMP180;4154;48.810;9.012;2023-11-21T08:07:36;96613.00;;;8.20
8227;BMP180;4154;48.810;9.012;2023-11-21T08:10:02;96620.00;;;8.30
8227;BMP180;4154;48.810;9.012;2023-11-21T08:12:30;96617.00;;;8.30
8227;BMP180;4154;48.810;9.012;2023-11-21T08:14:56;96618.00;;;8.30
8227;BMP180;4154;48.810;9.012;2023-11-21T08:17:22;96627.00;;;8.30
8227;BMP180;4154;48.810;9.012;2023-11-21T08:19:49;96614.00;;;8.30
8227;BMP180;4154;48.810;9.012;2023-11-21T08:22:17;96627.00;;;8.30
8227;BMP180;4154;48.810;9.012;2023-11-21T08:24:44;96616.00;;;8.30
8227;BMP180;4154;48.810;9.012;2023-11-21T08:27:10;96626.00;;;8.40
8227;BMP180;4154;48.810;9.012;2023-11-21T08:29:37;96622.00;;;8.30
8227;BMP180;4154;48.810;9.012;2023-11-21T08:32:03;96620.00;;;8.30
8227;BMP180;4154;48.810;9.012;2023-11-21T08:35:24;96632.00;;;8.40
8227;BMP180;4154;48.810;9.012;2023-11-21T08:37:53;96632.00;;;8.40
8227;BMP180;4154;48.810;9.012;2023-11-21T08:40:19;96634.00;;;8.40
8227;BMP180;4154;48.810;9.012;2023-11-21T08:42:47;96634.00;;;8.50
8227;BMP180;4154;48.810;9.012;2023-11-21T08:45:14;96625.00;;;8.50
8227;BMP180;4154;48.810;9.012;2023-11-21T08:47:41;96629.00;;;8.50
8227;BMP180;4154;48.810;9.012;2023-11-21T08:50:10;96631.00;;;8.60
8227;BMP180;4154;48.810;9.012;2023-11-21T08:52:41;96639.00;;;8.60
8227;BMP180;4154;48.810;9.012;2023-11-21T08:55:16;96634.00;;;8.60
8227;BMP180;4154;48.810;9.012;2023-11-21T08:57:44;96639.00;;;8.60
8227;BMP180;4154;48.810;9.012;2023-11-21T09:00:12;96645.00;;;8.60
8227;BMP180;4154;48.810;9.012;2023-11-21T09:02:41;96640.00;;;8.60
8227;BMP180;4154;48.810;9.012;2023-11-21T09:05:08;96639.00;;;8.60
8227;BMP180;4154;48.810;9.012;2023-11-21T09:07:35;96649.00;;;8.60
8227;BMP180;4154;48.810;9.012;2023-11-21T09:10:02;96644.00;;;8.60
8227;BMP180;4154;48.810;9.012;2023-11-21T09:12:29;96641.00;;;8.60
8227;BMP180;4154;48.810;9.012;2023-11-21T09:14:55;96653.00;;;8.50
8227;BMP180;4154;48.810;9.012;2023-11-21T09:17:21;96657.00;;;8.50
8227;BMP180;4154;48.810;9.012;2023-11-21T09:19:47;96668.00;;;8.50
8227;BMP180;4154;48.810;9.012;2023-11-21T09:22:17;96661.00;;;8.50
8227;BMP180;4154;48.810;9.012;2023-11-21T09:24:43;96668.00;;;8.50
8227;BMP180;4154;48.810;9.012;2023-11-21T09:27:09;96669.00;;;8.50
8227;BMP180;4154;48.810;9.012;2023-11-21T09:29:37;96672.00;;;8.50
8227;BMP180;4154;48.810;9.012;2023-11-21T09:32:06;96672.00;;;8.50
8227;BMP180;4154;48.810;9.012;2023-11-21T09:34:34;96677.00;;;8.50
8227;BMP180;4154;48.810;9.012;2023-11-21T09:37:04;96680.00;;;8.50
8227;BMP180;4154;48.810;9.012;2023-11-21T09:39:32;96686.00;;;8.50
8227;BMP180;4154;48.810;9.012;2023-11-21T09:42:10;96683.00;;;8.50
8227;BMP180;4154;48.810;9.012;2023-11-21T09:44:58;96686.00;;;8.50
8227;BMP180;4154;48.810;9.012;2023-11-21T09:47:27;96680.00;;;8.50
8227;BMP180;4154;48.810;9.012;2023-11-21T09:49:56;96685.00;;;8.60
8227;BMP180;4154;48.810;9.012;2023-11-21T09:52:27;96685.00;;;8.50
8227;BMP180;4154;48.810;9.012;2023-11-21T09:54:55;96697.00;;;8.50
8227;BMP180;4154;48.810;9.012;2023-11-21T09:57:24;96683.00;;;8.50
8227;BMP180;4154;48.810;9.012;2023-11-21T09:59:55;96684.00;;;8.50
8227;BMP180;4154;48.810;9.012;2023-11-21T10:02:33;96686.00;;;8.60
8227;BMP180;4154;48.810;9.012;2023-11-21T10:05:02;96692.00;;;8.60
8227;BMP180;4154;48.810;9.012;2023-11-21T10:07:31;96695.00;;;8.60
8227;BMP180;4154;48.810;9.012;2023-11-21T10:10:00;96691.00;;;8.60
8227;BMP180;4154;48.810;9.012;2023-11-21T10:12:28;96696.00;;;8.60
8227;BMP180;4154;48.810;9.012;2023-11-21T10:14:58;96701.00;;;8.60
8227;BMP180;4154;48.810;9.012;2023-11-21T10:17:26;96705.00;;;8.60
8227;BMP180;4154;48.810;9.012;2023-11-21T10:19:56;96701.00;;;8.60
8227;BMP180;4154;48.810;9.012;2023-11-21T10:22:23;96698.00;;;8.60
8227;BMP180;4154;48.810;9.012;2023-11-21T10:24:49;96705.00;;;8.60
8227;BMP180;4154;48.810;9.012;2023-11-21T10:27:18;96694.00;;;8.60
8227;BMP180;4154;48.810;9.012;2023-11-21T10:29:44;96703.00;;;8.60
8227;BMP180;4154;48.810;9.012;2023-11-21T10:32:12;96703.00;;;8.70
8227;BMP180;4154;48.810;9.012;2023-11-21T10:34:38;96709.00;;;8.60
8227;BMP180;4154;48.810;9.012;2023-11-21T10:37:13;96699.00;;;8.70
8227;BMP180;4154;48.810;9.012;2023-11-21T10:39:39;96699.00;;;8.70
8227;BMP180;4154;48.810;9.012;2023-11-21T10:42:08;96705.00;;;8.70
8227;BMP180;4154;48.810;9.012;2023-11-21T10:44:36;96701.00;;;8.70
8227;BMP180;4154;48.810;9.012;2023-11-21T10:47:02;96700.00;;;8.70
8227;BMP180;4154;48.810;9.012;2023-11-21T10:49:28;96712.00;;;8.70
8227;BMP180;4154;48.810;9.012;2023-11-21T10:51:54;96711.00;;;8.70
8227;BMP180;4154;48.810;9.012;2023-11-21T10:54:23;96704.00;;;8.60
8227;BMP180;4154;48.810;9.012;2023-11-21T10:56:56;96707.00;;;8.70
8227;BMP180;4154;48.810;9.012;2023-11-21T10:59:23;96712.00;;;8.70
8227;BMP180;4154;48.810;9.012;2023-11-21T11:01:51;96700.00;;;8.70
8227;BMP180;4154;48.810;9.012;2023-11-21T11:04:19;96716.00;;;8.70
8227;BMP180;4154;48.810;9.012;2023-11-21T11:06:45;96706.00;;;8.80
8227;BMP180;4154;48.810;9.012;2023-11-21T11:09:16;96710.00;;;8.80
8227;BMP180;4154;48.810;9.012;2023-11-21T11:11:43;96701.00;;;8.80
8227;BMP180;4154;48.810;9.012;2023-11-21T11:14:13;96707.00;;;8.80
8227;BMP180;4154;48.810;9.012;2023-11-21T11:16:41;96716.00;;;8.80
8227;BMP180;4154;48.810;9.012;2023-11-21T11:19:10;96709.00;;;8.80
8227;BMP180;4154;48.810;9.012;2023-11-21T11:24:42;96713.00;;;8.90
8227;BMP180;4154;48.810;9.012;2023-11-21T11:33:10;96721.00;;;9.00
8227;BMP180;4154;48.810;9.012;2023-11-21T11:35:57;96713.00;;;9.00
8227;BMP180;4154;48.810;9.012;2023-11-21T11:38:31;96717.00;;;9.00
8227;BMP180;4154;48.810;9.012;2023-11-21T11:41:06;96718.00;;;9.00
8227;BMP180;4154;48.810;9.012;2023-11-21T11:43:32;96718.00;;;9.00
8227;BMP180;4154;48.810;9.012;2023-11-21T11:46:02;96713.00;;;9.10
8227;BMP180;4154;48.810;9.012;2023-11-21T11:48:29;96725.00;;;9.00
8227;BMP180;4154;48.810;9.012;2023-11-21T11:51:11;96727.00;;;9.10
8227;BMP180;4154;48.810;9.012;2023-11-21T11:53:41;96730.00;;;9.00
8227;BMP180;4154;48.810;9.012;2023-11-21T11:56:24;96725.00;;;9.00
8227;BMP180;4154;48.810;9.012;2023-11-21T11:58:59;96721.00;;;8.90
8227;BMP180;4154;48.810;9.012;2023-11-21T12:01:27;96733.00;;;8.80
8227;BMP180;4154;48.810;9.012;2023-11-21T12:06:42;96726.00;;;8.80
8227;BMP180;4154;48.810;9.012;2023-11-21T12:09:22;96728.00;;;8.90
8227;BMP180;4154;48.810;9.012;2023-11-21T12:11:49;96726.00;;;8.90
8227;BMP180;4154;48.810;9.012;2023-11-21T12:14:16;96727.00;;;8.90
8227;BMP180;4154;48.810;9.012;2023-11-21T12:16:43;96726.00;;;9.00
8227;BMP180;4154;48.810;9.012;2023-11-21T12:19:12;96731.00;;;9.00
8227;BMP180;4154;48.810;9.012;2023-11-21T12:21:39;96743.00;;;9.10
8227;BMP180;4154;48.810;9.012;2023-11-21T12:24:08;96729.00;;;9.00
8227;BMP180;4154;48.810;9.012;2023-11-21T12:26:35;96733.00;;;9.10
8227;BMP180;4154;48.810;9.012;2023-11-21T12:29:04;96733.00;;;9.10
8227;BMP180;4154;48.810;9.012;2023-11-21T12:31:33;96734.00;;;9.00
8227;BMP180;4154;48.810;9.012;2023-11-21T12:34:00;96740.00;;;9.00
8227;BMP180;4154;48.810;9.012;2023-11-21T12:36:27;96742.00;;;9.00
8227;BMP180;4154;48.810;9.012;2023-11-21T12:38:56;96751.00;;;9.10
8227;BMP180;4154;48.810;9.012;2023-11-21T12:41:22;96747.00;;;9.10
8227;BMP180;4154;48.810;9.012;2023-11-21T12:43:48;96747.00;;;9.10
8227;BMP180;4154;48.810;9.012;2023-11-21T12:46:15;96743.00;;;9.10
8227;BMP180;4154;48.810;9.012;2023-11-21T12:48:43;96745.00;;;9.20
8227;BMP180;4154;48.810;9.012;2023-11-21T12:51:10;96749.00;;;9.10
8227;BMP180;4154;48.810;9.012;2023-11-21T12:53:38;96749.00;;;9.10
8227;BMP180;4154;48.810;9.012;2023-11-21T12:56:11;96754.00;;;9.20
8227;BMP180;4154;48.810;9.012;2023-11-21T12:58:39;96747.00;;;9.20
8227;BMP180;4154;48.810;9.012;2023-11-21T13:01:08;96747.00;;;9.20
8227;BMP180;4154;48.810;9.012;2023-11-21T13:03:38;96753.00;;;9.30
8227;BMP180;4154;48.810;9.012;2023-11-21T13:06:06;96751.00;;;9.30
8227;BMP180;4154;48.810;9.012;2023-11-21T13:08:34;96758.00;;;9.30
8227;BMP180;4154;48.810;9.012;2023-11-21T13:11:00;96763.00;;;9.20
8227;BMP180;4154;48.810;9.012;2023-11-21T13:13:29;96760.00;;;9.00
8227;BMP180;4154;48.810;9.012;2023-11-21T13:15:58;96768.00;;;9.00
8227;BMP180;4154;48.810;9.012;2023-11-21T13:18:27;96760.00;;;9.00
8227;BMP180;4154;48.810;9.012;2023-11-21T13:20:58;96765.00;;;8.90
8227;BMP180;4154;48.810;9.012;2023-11-21T13:23:26;96771.00;;;9.00
8227;BMP180;4154;48.810;9.012;2023-11-21T13:25:53;96778.00;;;8.90
8227;BMP180;4154;48.810;9.012;2023-11-21T13:28:19;96777.00;;;8.90
8227;BMP180;4154;48.810;9.012;2023-11-21T13:30:48;96775.00;;;8.90
8227;BMP180;4154;48.810;9.012;2023-11-21T13:33:14;96783.00;;;8.80
8227;BMP180;4154;48.810;9.012;2023-11-21T13:35:47;96791.00;;;8.80
8227;BMP180;4154;48.810;9.012;2023-11-21T13:38:16;96786.00;;;8.80
8227;BMP180;4154;48.810;9.012;2023-11-21T13:40:55;96794.00;;;8.80
8227;BMP180;4154;48.810;9.012;2023-11-21T13:43:24;96795.00;;;8.90
8227;BMP180;4154;48.810;9.012;2023-11-21T13:45:52;96795.00;;;8.80
8227;BMP180;4154;48.810;9.012;2023-11-21T13:48:29;96803.00;;;8.80
8227;BMP180;4154;48.810;9.012;2023-11-21T13:51:03;96799.00;;;8.80
8227;BMP180;4154;48.810;9.012;2023-11-21T13:53:47;96807.00;;;8.80
8227;BMP180;4154;48.810;9.012;2023-11-21T13:56:16;96812.00;;;8.80
8227;BMP180;4154;48.810;9.012;2023-11-21T13:58:54;96814.00;;;8.80
8227;BMP180;4154;48.810;9.012;2023-11-21T14:01:23;96811.00;;;8.80
8227;BMP180;4154;48.810;9.012;2023-11-21T14:03:56;96813.00;;;8.80
8227;BMP180;4154;48.810;9.012;2023-11-21T14:06:35;96817.00;;;8.80
8227;BMP180;4154;48.810;9.012;2023-11-21T14:09:11;96822.00;;;8.80
8227;BMP180;4154;48.810;9.012;2023-11-21T14:11:39;96818.00;;;8.80
8227;BMP180;4154;48.810;9.012;2023-11-21T14:14:05;96822.00;;;8.90
8227;BMP180;4154;48.810;9.012;2023-11-21T14:16:31;96826.00;;;8.90
8227;BMP180;4154;48.810;9.012;2023-11-21T14:18:57;96826.00;;;8.90
8227;BMP180;4154;48.810;9.012;2023-11-21T14:21:35;96832.00;;;8.90
8227;BMP180;4154;48.810;9.012;2023-11-21T14:24:01;96826.00;;;8.90
8227;BMP180;4154;48.810;9.012;2023-11-21T14:26:28;96824.00;;;8.90
8227;BMP180;4154;48.810;9.012;2023-11-21T14:28:59;96832.00;;;8.90
8227;BMP180;4154;48.810;9.012;2023-11-21T14:31:26;96846.00;;;9.00
8227;BMP180;4154;48.810;9.012;2023-11-21T14:33:53;96836.00;;;8.90
8227;BMP180;4154;48.810;9.012;2023-11-21T14:36:24;96836.00;;;8.90
8227;BMP180;4154;48.810;9.012;2023-11-21T14:38:51;96837.00;;;8.90
8227;BMP180;4154;48.810;9.012;2023-11-21T14:41:20;96847.00;;;8.90
8227;BMP180;4154;48.810;9.012;2023-11-21T14:43:46;96849.00;;;8.90
8227;BMP180;4154;48.810;9.012;2023-11-21T14:46:15;96856.00;;;8.90
8227;BMP180;4154;48.810;9.012;2023-11-21T14:48:52;96840.00;;;8.70
8227;BMP180;4154;48.810;9.012;2023-11-21T14:51:28;96853.00;;;8.70
8227;BMP180;4154;48.810;9.012;2023-11-21T14:53:57;96869.00;;;8.60
8227;BMP180;4154;48.810;9.012;2023-11-21T14:56:32;96863.00;;;8.50
8227;BMP180;4154;48.810;9.012;2023-11-21T14:59:03;96862.00;;;8.50
8227;BMP180;4154;48.810;9.012;2023-11-21T15:01:38;96867.00;;;8.50
8227;BMP180;4154;48.810;9.012;2023-11-21T15:04:10;96867.00;;;8.50
8227;BMP180;4154;48.810;9.012;2023-11-21T15:06:48;96875.00;;;8.50
8227;BMP180;4154;48.810;9.012;2023-11-21T15:09:14;96880.00;;;8.50